sensor_id;sensor_type;location;lat;lon;timestamp;pressure;altitude;pressure_sealevel;temperature;humidity
34185;BME280;20454;48.100;11.776;2023-04-20T00:01:14;95305.25;;;4.96;100.00
34185;BME280;20454;48.100;11.776;2023-04-20T00:03:40;95299.81;;;4.91;100.00
34185;BME280;20454;48.100;11.776;2023-04-20T00:06:05;95299.75;;;4.96;100.00
34185;BME280;20454;48.100;11.776;2023-04-20T00:08:32;95291.78;;;4.95;100.00
34185;BME280;20454;48.100;11.776;2023-04-20T00:10:58;95288.19;;;4.94;100.00
34185;BME280;20454;48.100;11.776;2023-04-20T00:13:23;95285.44;;;4.94;100.00
34185;BME280;20454;48.100;11.776;2023-04-20T00:15:49;95283.81;;;4.93;100.00
34185;BME280;20454;48.100;11.776;2023-04-20T00:18:14;95278.34;;;4.88;100.00
34185;BME280;20454;48.100;11.776;2023-04-20T00:20:40;95285.22;;;4.91;100.00
34185;BME280;20454;48.100;11.776;2023-04-20T00:23:06;95279.19;;;4.89;100.00
34185;BME280;20454;48.100;11.776;2023-04-20T00:25:32;95277.22;;;4.89;100.00
34185;BME280;20454;48.100;11.776;2023-04-20T00:27:58;95268.44;;;4.87;100.00
34185;BME280;20454;48.100;11.776;2023-04-20T00:30:24;95279.66;;;4.96;100.00
34185;BME280;20454;48.100;11.776;2023-04-20T00:32:50;95263.69;;;4.93;100.00
34185;BME280;20454;48.100;11.776;2023-04-20T00:35:16;95269.44;;;4.96;100.00
34185;BME280;20454;48.100;11.776;2023-04-20T00:37:41;95264.22;;;4.95;100.00
34185;BME280;20454;48.100;11.776;2023-04-20T00:40:07;95263.91;;;4.96;100.00
34185;BME280;20454;48.100;11.776;2023-04-20T00:42:34;95261.16;;;4.96;100.00
34185;BME280;20454;48.100;11.776;2023-04-20T00:44:59;95253.72;;;4.97;100.00
34185;BME280;20454;48.100;11.776;2023-04-20T00:47:25;95245.47;;;4.97;100.00
34185;BME280;20454;48.100;11.776;2023-04-20T00:49:51;95248.50;;;4.95;100.00
34185;BME280;20454;48.100;11.776;2023-04-20T00:52:17;95236.94;;;4.93;100.00
34185;BME280;20454;48.100;11.776;2023-04-20T00:54:43;95235.00;;;4.94;100.00
34185;BME280;20454;48.100;11.776;2023-04-20T00:57:11;95231.44;;;4.93;100.00
34185;BME280;20454;48.100;11.776;2023-04-20T00:59:38;95229.81;;;4.92;100.00
34185;BME280;20454;48.100;11.776;2023-04-20T01:02:04;95235.56;;;4.96;100.00
34185;BME280;20454;48.100;11.776;2023-04-20T01:04:29;95226.69;;;4.99;100.00
34185;BME280;20454;48.100;11.776;2023-04-20T01:06:55;95223.41;;;4.97;100.00
34185;BME280;20454;48.100;11.776;2023-04-20T01:09:21;95217.88;;;4.97;100.00
34185;BME280;20454;48.100;11.776;2023-04-20T01:11:47;95204.91;;;4.97;100.00
34185;BME280;20454;48.100;11.776;2023-04-20T01:14:13;95215.38;;;5.00;100.00
34185;BME280;20454;48.100;11.776;2023-04-20T01:16:38;95211.25;;;4.98;100.00
34185;BME280;20454;48.100;11.776;2023-04-20T01:19:04;95206.25;;;5.00;100.00
34185;BME280;20454;48.100;11.776;2023-04-20T01:21:30;95208.22;;;4.99;100.00
34185;BME280;20454;48.100;11.776;2023-04-20T01:23:56;95184.81;;;4.97;100.00
34185;BME280;20454;48.100;11.776;2023-04-20T01:26:22;95185.94;;;4.96;100.00
34185;BME280;20454;48.100;11.776;2023-04-20T01:28:49;95188.69;;;4.96;100.00
34185;BME280;20454;48.100;11.776;2023-04-20T01:31:14;95184.53;;;4.98;100.00
34185;BME280;20454;48.100;11.776;2023-04-20T01:33:40;95181.53;;;4.95;100.00
34185;BME280;20454;48.100;11.776;2023-04-20T01:36:06;95178.25;;;4.93;100.00
34185;BME280;20454;48.100;11.776;2023-04-20T01:38:33;95184.06;;;4.91;100.00
34185;BME280;20454;48.100;11.776;2023-04-20T01:41:00;95174.22;;;4.85;100.00
34185;BME280;20454;48.100;11.776;2023-04-20T01:43:26;95181.38;;;4.86;100.00
34185;BME280;20454;48.100;11.776;2023-04-20T01:45:52;95180.38;;;4.77;100.00
34185;BME280;20454;48.100;11.776;2023-04-20T01:48:17;95187.53;;;4.78;100.00
34185;BME280;20454;48.100;11.776;2023-04-20T01:50:43;95187.44;;;4.83;100.00
34185;BME280;20454;48.100;11.776;2023-04-20T01:53:09;95177.91;;;4.76;100.00
34185;BME280;20454;48.100;11.776;2023-04-20T01:55:34;95179.31;;;4.73;100.00
34185;BME280;20454;48.100;11.776;2023-04-20T01:58:00;95180.06;;;4.79;100.00
34185;BME280;20454;48.100;11.776;2023-04-20T04:02:13;95098.09;;;4.47;100.00
34185;BME280;20454;48.100;11.776;2023-04-20T04:04:40;95096.69;;;4.50;100.00
34185;BME280;20454;48.100;11.776;2023-04-20T04:07:05;95099.75;;;4.48;100.00
34185;BME280;20454;48.100;11.776;2023-04-20T04:09:31;95097.31;;;4.47;100.00
34185;BME280;20454;48.100;11.776;2023-04-20T04:11:57;95094.59;;;4.42;100.00
34185;BME280;20454;48.100;11.776;2023-04-20T04:14:23;95090.44;;;4.45;100.00
34185;BME280;20454;48.100;11.776;2023-04-20T04:16:48;95091.44;;;4.53;100.00
34185;BME280;20454;48.100;11.776;2023-04-20T04:19:14;95089.34;;;4.46;100.00
34185;BME280;20454;48.100;11.776;2023-04-20T04:21:40;95092.38;;;4.44;100.00
34185;BME280;20454;48.100;11.776;2023-04-20T04:24:06;95092.59;;;4.47;100.00
34185;BME280;20454;48.100;11.776;2023-04-20T04:26:32;95088.97;;;4.52;100.00
34185;BME280;20454;48.100;11.776;2023-04-20T04:28:58;95086.19;;;4.52;100.00
34185;BME280;20454;48.100;11.776;2023-04-20T04:31:23;95093.28;;;4.58;100.00
34185;BME280;20454;48.100;11.776;2023-04-20T04:33:49;95091.13;;;4.55;100.00
34185;BME280;20454;48.100;11.776;2023-04-20T04:36:15;95093.06;;;4.54;100.00
34185;BME280;20454;48.100;11.776;2023-04-20T04:38:42;95086.53;;;4.51;100.00
34185;BME280;20454;48.100;11.776;2023-04-20T04:41:11;95078.81;;;4.47;100.00
34185;BME280;20454;48.100;11.776;2023-04-20T04:43:38;95075.63;;;4.41;100.00
34185;BME280;20454;48.100;11.776;2023-04-20T05:50:51;95080.34;;;4.58;100.00
34185;BME280;20454;48.100;11.776;2023-04-20T05:53:16;95082.50;;;4.61;100.00
34185;BME280;20454;48.100;11.776;2023-04-20T05:55:42;95081.94;;;4.64;100.00
34185;BME280;20454;48.100;11.776;2023-04-20T05:58:07;95075.53;;;4.69;100.00
34185;BME280;20454;48.100;11.776;2023-04-20T06:00:33;95074.63;;;4.73;100.00
34185;BME280;20454;48.100;11.776;2023-04-20T06:03:00;95072.94;;;4.77;100.00
34185;BME280;20454;48.100;11.776;2023-04-20T06:05:25;95075.91;;;4.81;100.00
34185;BME280;20454;48.100;11.776;2023-04-20T06:07:51;95064.91;;;4.81;100.00
34185;BME280;20454;48.100;11.776;2023-04-20T06:10:17;95069.06;;;4.78;100.00
34185;BME280;20454;48.100;11.776;2023-04-20T06:12:42;95071.94;;;4.87;100.00
34185;BME280;20454;48.100;11.776;2023-04-20T06:15:08;95070.25;;;4.91;100.00
34185;BME280;20454;48.100;11.776;2023-04-20T06:17:36;95081.78;;;4.93;100.00
34185;BME280;20454;48.100;11.776;2023-04-20T06:20:09;95081.28;;;4.91;100.00
34185;BME280;20454;48.100;11.776;2023-04-20T06:22:35;95075.69;;;4.96;100.00
34185;BME280;20454;48.100;11.776;2023-04-20T06:25:01;95069.28;;;5.00;100.00
34185;BME280;20454;48.100;11.776;2023-04-20T06:27:27;95071.28;;;5.13;100.00
34185;BME280;20454;48.100;11.776;2023-04-20T06:29:53;95067.72;;;5.13;100.00
34185;BME280;20454;48.100;11.776;2023-04-20T06:32:19;95061.91;;;5.14;100.00
34185;BME280;20454;48.100;11.776;2023-04-20T06:34:45;95064.59;;;5.19;100.00
34185;BME280;20454;48.100;11.776;2023-04-20T06:37:12;95056.84;;;5.21;100.00
34185;BME280;20454;48.100;11.776;2023-04-20T06:39:38;95061.16;;;5.27;100.00
34185;BME280;20454;48.100;11.776;2023-04-20T06:42:03;95052.47;;;5.34;100.00
34185;BME280;20454;48.100;11.776;2023-04-20T06:44:29;95048.09;;;5.33;100.00
34185;BME280;20454;48.100;11.776;2023-04-20T06:46:55;95048.59;;;5.35;100.00
34185;BME280;20454;48.100;11.776;2023-04-20T06:49:20;95041.84;;;5.27;100.00
34185;BME280;20454;48.100;11.776;2023-04-20T06:51:46;95052.81;;;5.32;100.00
34185;BME280;20454;48.100;11.776;2023-04-20T06:54:12;95051.44;;;5.48;100.00
34185;BME280;20454;48.100;11.776;2023-04-20T06:56:37;95045.78;;;5.40;100.00
34185;BME280;20454;48.100;11.776;2023-04-20T06:59:03;95046.59;;;5.40;100.00
34185;BME280;20454;48.100;11.776;2023-04-20T07:04:04;95036.47;;;5.36;100.00
34185;BME280;20454;48.100;11.776;2023-04-20T07:06:30;95034.75;;;5.40;100.00
34185;BME280;20454;48.100;11.776;2023-04-20T07:08:56;95033.13;;;5.52;100.00
34185;BME280;20454;48.100;11.776;2023-04-20T07:11:23;95036.69;;;5.39;100.00
34185;BME280;20454;48.100;11.776;2023-04-20T07:13:49;95039.13;;;5.41;100.00
34185;BME280;20454;48.100;11.776;2023-04-20T07:16:14;95043.22;;;5.43;100.00
34185;BME280;20454;48.100;11.776;2023-04-20T07:18:40;95035.34;;;5.37;100.00
34185;BME280;20454;48.100;11.776;2023-04-20T07:21:06;95030.00;;;5.27;100.00
34185;BME280;20454;48.100;11.776;2023-04-20T07:23:32;95039.59;;;5.29;100.00
34185;BME280;20454;48.100;11.776;2023-04-20T07:25:57;95025.66;;;5.21;100.00
34185;BME280;20454;48.100;11.776;2023-04-20T07:28:23;95031.13;;;5.26;100.00
34185;BME280;20454;48.100;11.776;2023-04-20T07:30:49;95035.81;;;5.25;100.00
34185;BME280;20454;48.100;11.776;2023-04-20T07:33:15;95043.47;;;5.28;100.00
34185;BME280;20454;48.100;11.776;2023-04-20T07:35:40;95045.19;;;5.24;100.00
34185;BME280;20454;48.100;11.776;2023-04-20T07:38:06;95042.00;;;5.17;100.00
34185;BME280;20454;48.100;11.776;2023-04-20T07:40:31;95043.56;;;5.23;100.00
34185;BME280;20454;48.100;11.776;2023-04-20T07:42:57;95045.34;;;5.33;100.00
34185;BME280;20454;48.100;11.776;2023-04-20T07:45:23;95060.75;;;5.34;100.00
34185;BME280;20454;48.100;11.776;2023-04-20T07:47:48;95065.91;;;5.40;100.00
34185;BME280;20454;48.100;11.776;2023-04-20T07:50:16;95068.13;;;5.38;100.00
34185;BME280;20454;48.100;11.776;2023-04-20T07:52:42;95059.78;;;5.43;100.00
34185;BME280;20454;48.100;11.776;2023-04-20T07:55:11;95061.72;;;5.43;100.00
34185;BME280;20454;48.100;11.776;2023-04-20T07:57:38;95062.25;;;5.45;100.00
34185;BME280;20454;48.100;11.776;2023-04-20T08:00:06;95064.09;;;5.49;100.00
34185;BME280;20454;48.100;11.776;2023-04-20T08:02:32;95073.72;;;5.52;100.00
34185;BME280;20454;48.100;11.776;2023-04-20T08:04:57;95066.94;;;5.44;100.00
34185;BME280;20454;48.100;11.776;2023-04-20T08:07:23;95067.47;;;5.46;100.00
34185;BME280;20454;48.100;11.776;2023-04-20T08:09:49;95070.25;;;5.60;100.00
34185;BME280;20454;48.100;11.776;2023-04-20T08:12:14;95066.78;;;5.54;100.00
34185;BME280;20454;48.100;11.776;2023-04-20T08:14:40;95070.81;;;5.43;100.00
34185;BME280;20454;48.100;11.776;2023-04-20T08:17:06;95067.25;;;5.43;100.00
34185;BME280;20454;48.100;11.776;2023-04-20T08:19:32;95041.81;;;5.46;100.00
34185;BME280;20454;48.100;11.776;2023-04-20T08:21:58;95048.88;;;5.52;100.00
34185;BME280;20454;48.100;11.776;2023-04-20T08:24:23;95039.19;;;5.54;100.00
34185;BME280;20454;48.100;11.776;2023-04-20T08:26:49;95046.75;;;5.62;100.00
34185;BME280;20454;48.100;11.776;2023-04-20T08:29:15;95044.50;;;5.64;100.00
34185;BME280;20454;48.100;11.776;2023-04-20T08:31:41;95042.09;;;5.76;100.00
34185;BME280;20454;48.100;11.776;2023-04-20T08:34:07;95047.78;;;5.85;100.00
34185;BME280;20454;48.100;11.776;2023-04-20T08:36:33;95033.47;;;5.96;100.00
34185;BME280;20454;48.100;11.776;2023-04-20T08:39:10;95041.63;;;5.88;100.00
34185;BME280;20454;48.100;11.776;2023-04-20T08:41:36;95037.53;;;5.85;100.00
34185;BME280;20454;48.100;11.776;2023-04-20T08:44:02;95048.78;;;5.89;100.00
34185;BME280;20454;48.100;11.776;2023-04-20T08:46:27;95045.66;;;5.95;100.00
34185;BME280;20454;48.100;11.776;2023-04-20T08:48:53;95041.75;;;5.96;100.00
34185;BME280;20454;48.100;11.776;2023-04-20T08:51:20;95040.22;;;6.04;100.00
34185;BME280;20454;48.100;11.776;2023-04-20T08:53:46;95047.28;;;6.10;100.00
34185;BME280;20454;48.100;11.776;2023-04-20T08:56:12;95040.66;;;6.24;100.00
34185;BME280;20454;48.100;11.776;2023-04-20T08:58:38;95046.38;;;6.14;100.00
34185;BME280;20454;48.100;11.776;2023-04-20T09:01:10;95041.47;;;6.11;100.00
34185;BME280;20454;48.100;11.776;2023-04-20T09:03:37;95043.41;;;6.11;100.00
34185;BME280;20454;48.100;11.776;2023-04-20T09:06:04;95032.06;;;5.99;100.00
34185;BME280;20454;48.100;11.776;2023-04-20T09:08:40;95038.78;;;6.06;100.00
34185;BME280;20454;48.100;11.776;2023-04-20T09:11:19;95048.31;;;6.14;100.00
34185;BME280;20454;48.100;11.776;2023-04-20T09:14:02;95045.56;;;6.14;100.00
34185;BME280;20454;48.100;11.776;2023-04-20T09:16:29;95057.03;;;6.21;100.00
34185;BME280;20454;48.100;11.776;2023-04-20T09:18:56;95057.53;;;6.23;100.00
34185;BME280;20454;48.100;11.776;2023-04-20T09:21:22;95055.19;;;6.16;100.00
34185;BME280;20454;48.100;11.776;2023-04-20T09:24:15;95066.72;;;6.32;100.00
34185;BME280;20454;48.100;11.776;2023-04-20T09:26:41;95055.78;;;6.40;99.08
34185;BME280;20454;48.100;11.776;2023-04-20T09:29:21;95058.22;;;6.28;100.00
34185;BME280;20454;48.100;11.776;2023-04-20T09:31:48;95059.78;;;6.34;100.00
34185;BME280;20454;48.100;11.776;2023-04-20T09:34:14;95058.66;;;6.35;100.00
34185;BME280;20454;48.100;11.776;2023-04-20T09:36:44;95049.66;;;6.43;100.00
34185;BME280;20454;48.100;11.776;2023-04-20T09:39:21;95054.47;;;6.51;100.00
34185;BME280;20454;48.100;11.776;2023-04-20T09:41:48;95052.22;;;6.53;99.25
34185;BME280;20454;48.100;11.776;2023-04-20T09:44:14;95058.44;;;6.59;100.00
34185;BME280;20454;48.100;11.776;2023-04-20T09:46:40;95064.38;;;6.66;99.96
34185;BME280;20454;48.100;11.776;2023-04-20T09:49:08;95049.50;;;6.75;100.00
34185;BME280;20454;48.100;11.776;2023-04-20T09:51:44;95049.31;;;6.85;99.75
34185;BME280;20454;48.100;11.776;2023-04-20T09:54:09;95042.94;;;6.98;99.32
34185;BME280;20454;48.100;11.776;2023-04-20T09:56:36;95035.84;;;7.06;98.17
34185;BME280;20454;48.100;11.776;2023-04-20T09:59:02;95032.13;;;7.10;97.48
34185;BME280;20454;48.100;11.776;2023-04-20T10:01:32;95044.72;;;7.16;94.32
34185;BME280;20454;48.100;11.776;2023-04-20T10:04:01;95040.22;;;7.07;95.24
34185;BME280;20454;48.100;11.776;2023-04-20T10:06:32;95024.56;;;7.02;94.99
34185;BME280;20454;48.100;11.776;2023-04-20T10:09:04;95026.66;;;6.97;94.54
34185;BME280;20454;48.100;11.776;2023-04-20T10:11:30;95026.44;;;6.93;96.21
34185;BME280;20454;48.100;11.776;2023-04-20T10:13:57;95026.44;;;6.93;97.80
34185;BME280;20454;48.100;11.776;2023-04-20T10:16:25;95042.41;;;6.96;97.39
34185;BME280;20454;48.100;11.776;2023-04-20T10:19:01;95032.97;;;6.97;98.01
34185;BME280;20454;48.100;11.776;2023-04-20T10:21:31;95035.25;;;6.95;96.57
34185;BME280;20454;48.100;11.776;2023-04-20T10:23:59;95034.44;;;6.95;97.12
34185;BME280;20454;48.100;11.776;2023-04-20T10:26:44;95030.84;;;6.94;93.23
34185;BME280;20454;48.100;11.776;2023-04-20T10:29:21;95033.13;;;6.79;94.78
34185;BME280;20454;48.100;11.776;2023-04-20T10:31:47;95034.25;;;6.78;97.84
34185;BME280;20454;48.100;11.776;2023-04-20T10:34:12;95028.31;;;6.84;98.64
34185;BME280;20454;48.100;11.776;2023-04-20T10:36:38;95022.38;;;6.91;98.89
34185;BME280;20454;48.100;11.776;2023-04-20T10:39:16;95014.75;;;6.96;98.39
34185;BME280;20454;48.100;11.776;2023-04-20T10:41:53;95016.38;;;6.97;98.68
34185;BME280;20454;48.100;11.776;2023-04-20T10:44:19;95019.53;;;7.04;96.85
34185;BME280;20454;48.100;11.776;2023-04-20T10:46:52;95023.13;;;7.05;95.23
34185;BME280;20454;48.100;11.776;2023-04-20T10:49:18;95018.84;;;6.99;97.62
34185;BME280;20454;48.100;11.776;2023-04-20T10:51:48;95017.31;;;7.06;97.60
34185;BME280;20454;48.100;11.776;2023-04-20T10:54:14;95013.09;;;7.09;95.48
34185;BME280;20454;48.100;11.776;2023-04-20T10:56:42;95015.03;;;7.08;96.91
34185;BME280;20454;48.100;11.776;2023-04-20T10:59:09;94997.81;;;7.11;97.42
34185;BME280;20454;48.100;11.776;2023-04-20T11:01:35;95003.22;;;7.16;97.59
34185;BME280;20454;48.100;11.776;2023-04-20T11:04:01;94987.66;;;7.20;96.80
34185;BME280;20454;48.100;11.776;2023-04-20T11:06:27;94992.72;;;7.27;96.61
34185;BME280;20454;48.100;11.776;2023-04-20T11:08:53;94989.84;;;7.32;94.11
34185;BME280;20454;48.100;11.776;2023-04-20T11:11:20;94989.41;;;7.38;95.01
34185;BME280;20454;48.100;11.776;2023-04-20T11:13:46;94983.94;;;7.47;94.25
34185;BME280;20454;48.100;11.776;2023-04-20T11:16:14;94988.16;;;7.75;93.74
34185;BME280;20454;48.100;11.776;2023-04-20T11:18:51;94986.50;;;7.96;93.52
34185;BME280;20454;48.100;11.776;2023-04-20T11:21:18;94980.34;;;7.99;93.20
34185;BME280;20454;48.100;11.776;2023-04-20T11:23:44;94973.66;;;8.00;93.37
34185;BME280;20454;48.100;11.776;2023-04-20T11:26:10;94982.13;;;8.03;92.02
34185;BME280;20454;48.100;11.776;2023-04-20T11:28:36;94971.31;;;7.93;89.51
34185;BME280;20454;48.100;11.776;2023-04-20T11:31:02;94965.94;;;7.88;88.98
34185;BME280;20454;48.100;11.776;2023-04-20T11:33:28;94973.97;;;7.68;90.37
34185;BME280;20454;48.100;11.776;2023-04-20T11:35:55;94966.31;;;7.65;93.28
34185;BME280;20454;48.100;11.776;2023-04-20T11:38:32;94965.53;;;7.73;91.92
34185;BME280;20454;48.100;11.776;2023-04-20T11:40:59;94965.97;;;7.66;91.63
34185;BME280;20454;48.100;11.776;2023-04-20T11:43:30;94975.28;;;7.70;91.19
34185;BME280;20454;48.100;11.776;2023-04-20T11:45:56;94977.75;;;7.72;91.64
34185;BME280;20454;48.100;11.776;2023-04-20T11:48:22;94968.47;;;7.76;92.01
34185;BME280;20454;48.100;11.776;2023-04-20T11:50:48;94968.28;;;8.03;90.79
34185;BME280;20454;48.100;11.776;2023-04-20T11:53:14;94958.19;;;8.07;88.29
34185;BME280;20454;48.100;11.776;2023-04-20T11:55:40;94956.88;;;8.05;88.34
34185;BME280;20454;48.100;11.776;2023-04-20T11:58:06;94949.22;;;8.02;90.16
34185;BME280;20454;48.100;11.776;2023-04-20T12:00:33;94962.09;;;8.06;88.36
34185;BME280;20454;48.100;11.776;2023-04-20T12:02:58;94953.84;;;8.15;88.44
34185;BME280;20454;48.100;11.776;2023-04-20T12:05:27;94957.09;;;8.17;89.15
34185;BME280;20454;48.100;11.776;2023-04-20T12:07:52;94937.09;;;8.20;87.01
34185;BME280;20454;48.100;11.776;2023-04-20T12:10:18;94945.66;;;8.10;89.28
34185;BME280;20454;48.100;11.776;2023-04-20T12:12:44;94950.56;;;8.13;88.69
34185;BME280;20454;48.100;11.776;2023-04-20T12:15:09;94953.78;;;8.06;88.65
34185;BME280;20454;48.100;11.776;2023-04-20T12:17:35;94949.50;;;7.92;89.32
34185;BME280;20454;48.100;11.776;2023-04-20T12:20:01;94932.97;;;7.78;91.01
34185;BME280;20454;48.100;11.776;2023-04-20T12:22:27;94941.34;;;7.87;91.27
34185;BME280;20454;48.100;11.776;2023-04-20T12:24:52;94941.94;;;7.75;90.88
34185;BME280;20454;48.100;11.776;2023-04-20T12:27:18;94939.00;;;7.72;91.31
34185;BME280;20454;48.100;11.776;2023-04-20T12:29:44;94933.84;;;7.57;93.57
34185;BME280;20454;48.100;11.776;2023-04-20T12:32:10;94943.34;;;7.64;93.63
34185;BME280;20454;48.100;11.776;2023-04-20T12:34:36;94942.19;;;7.65;93.31
34185;BME280;20454;48.100;11.776;2023-04-20T12:37:01;94934.31;;;7.81;92.83
34185;BME280;20454;48.100;11.776;2023-04-20T12:39:27;94930.13;;;7.92;93.12
34185;BME280;20454;48.100;11.776;2023-04-20T12:41:53;94933.44;;;8.02;92.91
34185;BME280;20454;48.100;11.776;2023-04-20T12:44:18;94936.03;;;8.07;92.24
34185;BME280;20454;48.100;11.776;2023-04-20T12:46:44;94923.50;;;8.10;91.50
34185;BME280;20454;48.100;11.776;2023-04-20T12:49:09;94927.22;;;8.05;92.06
34185;BME280;20454;48.100;11.776;2023-04-20T12:51:35;94915.84;;;8.07;92.17
34185;BME280;20454;48.100;11.776;2023-04-20T12:54:01;94915.22;;;8.18;93.30
34185;BME280;20454;48.100;11.776;2023-04-20T12:56:27;94912.34;;;8.32;93.50
34185;BME280;20454;48.100;11.776;2023-04-20T12:58:53;94895.06;;;8.43;92.52
34185;BME280;20454;48.100;11.776;2023-04-20T13:01:18;94898.22;;;8.59;91.99
34185;BME280;20454;48.100;11.776;2023-04-20T13:03:44;94895.94;;;8.69;89.33
34185;BME280;20454;48.100;11.776;2023-04-20T13:06:10;94905.72;;;8.75;89.37
34185;BME280;20454;48.100;11.776;2023-04-20T13:08:36;94904.59;;;8.76;88.75
34185;BME280;20454;48.100;11.776;2023-04-20T13:11:02;94900.50;;;8.65;89.11
34185;BME280;20454;48.100;11.776;2023-04-20T13:13:28;94908.31;;;8.63;90.03
34185;BME280;20454;48.100;11.776;2023-04-20T13:15:54;94899.19;;;8.63;89.83
34185;BME280;20454;48.100;11.776;2023-04-20T13:18:19;94898.72;;;8.61;89.70
34185;BME280;20454;48.100;11.776;2023-04-20T13:20:46;94899.34;;;8.58;90.12
34185;BME280;20454;48.100;11.776;2023-04-20T13:23:11;94906.50;;;8.50;92.98
34185;BME280;20454;48.100;11.776;2023-04-20T13:25:37;94890.88;;;8.54;93.80
34185;BME280;20454;48.100;11.776;2023-04-20T13:28:03;94896.75;;;8.61;93.17
34185;BME280;20454;48.100;11.776;2023-04-20T13:30:30;94905.72;;;8.67;92.47
34185;BME280;20454;48.100;11.776;2023-04-20T13:32:56;94898.72;;;8.69;91.99
34185;BME280;20454;48.100;11.776;2023-04-20T13:35:22;94893.50;;;8.76;91.80
34185;BME280;20454;48.100;11.776;2023-04-20T13:37:48;94887.63;;;8.78;89.74
34185;BME280;20454;48.100;11.776;2023-04-20T13:40:13;94879.47;;;8.73;91.07
34185;BME280;20454;48.100;11.776;2023-04-20T13:42:39;94882.91;;;8.78;91.62
34185;BME280;20454;48.100;11.776;2023-04-20T13:45:05;94872.13;;;8.77;92.32
34185;BME280;20454;48.100;11.776;2023-04-20T13:47:31;94852.56;;;8.65;93.41
34185;BME280;20454;48.100;11.776;2023-04-20T13:49:57;94870.50;;;8.67;94.49
34185;BME280;20454;48.100;11.776;2023-04-20T13:52:23;94865.94;;;8.63;94.98
34185;BME280;20454;48.100;11.776;2023-04-20T13:54:49;94876.19;;;8.62;93.79
34185;BME280;20454;48.100;11.776;2023-04-20T16:01:37;94813.53;;;10.24;89.54
34185;BME280;20454;48.100;11.776;2023-04-20T16:04:03;94820.56;;;10.22;89.63
34185;BME280;20454;48.100;11.776;2023-04-20T16:06:29;94816.84;;;10.18;90.13
34185;BME280;20454;48.100;11.776;2023-04-20T16:08:56;94824.69;;;10.16;90.58
34185;BME280;20454;48.100;11.776;2023-04-20T16:11:22;94823.44;;;10.13;91.28
34185;BME280;20454;48.100;11.776;2023-04-20T16:13:48;94823.16;;;10.06;91.60
34185;BME280;20454;48.100;11.776;2023-04-20T16:16:14;94830.81;;;10.01;92.22
34185;BME280;20454;48.100;11.776;2023-04-20T16:18:40;94831.97;;;10.00;92.37
34185;BME280;20454;48.100;11.776;2023-04-20T16:21:05;94828.75;;;9.89;92.45
34185;BME280;20454;48.100;11.776;2023-04-20T16:23:31;94831.03;;;9.87;93.69
34185;BME280;20454;48.100;11.776;2023-04-20T16:25:57;94824.38;;;9.80;93.86
34185;BME280;20454;48.100;11.776;2023-04-20T16:28:23;94826.81;;;9.81;94.07
34185;BME280;20454;48.100;11.776;2023-04-20T16:30:48;94816.72;;;9.77;94.29
34185;BME280;20454;48.100;11.776;2023-04-20T16:33:14;94810.34;;;9.76;94.43
34185;BME280;20454;48.100;11.776;2023-04-20T16:35:40;94804.00;;;9.76;94.29
34185;BME280;20454;48.100;11.776;2023-04-20T16:38:05;94799.22;;;9.76;94.80
34185;BME280;20454;48.100;11.776;2023-04-20T16:40:31;94791.25;;;9.75;95.34
34185;BME280;20454;48.100;11.776;2023-04-20T16:42:57;94790.44;;;9.74;95.15
34185;BME280;20454;48.100;11.776;2023-04-20T16:45:22;94803.00;;;9.72;95.37
34185;BME280;20454;48.100;11.776;2023-04-20T16:47:48;94812.03;;;9.69;95.09
34185;BME280;20454;48.100;11.776;2023-04-20T16:50:15;94822.47;;;9.63;94.41
34185;BME280;20454;48.100;11.776;2023-04-20T16:52:48;94827.59;;;9.53;95.12
34185;BME280;20454;48.100;11.776;2023-04-20T16:55:14;94830.41;;;9.45;95.92
34185;BME280;20454;48.100;11.776;2023-04-20T16:57:40;94830.44;;;9.36;95.96
34185;BME280;20454;48.100;11.776;2023-04-20T17:00:07;94835.00;;;9.32;96.33
34185;BME280;20454;48.100;11.776;2023-04-20T17:02:35;94835.53;;;9.26;98.14
34185;BME280;20454;48.100;11.776;2023-04-20T17:05:02;94837.81;;;9.24;98.44
34185;BME280;20454;48.100;11.776;2023-04-20T17:07:28;94824.44;;;9.17;98.68
34185;BME280;20454;48.100;11.776;2023-04-20T17:09:54;94831.59;;;9.18;98.27
34185;BME280;20454;48.100;11.776;2023-04-20T17:12:20;94829.03;;;9.13;98.53
34185;BME280;20454;48.100;11.776;2023-04-20T17:14:46;94825.75;;;9.11;99.01
34185;BME280;20454;48.100;11.776;2023-04-20T17:17:11;94834.06;;;9.11;100.00
34185;BME280;20454;48.100;11.776;2023-04-20T17:19:37;94843.69;;;9.05;99.83
34185;BME280;20454;48.100;11.776;2023-04-20T17:22:06;94835.06;;;8.98;100.00
34185;BME280;20454;48.100;11.776;2023-04-20T17:24:31;94848.78;;;8.95;100.00
34185;BME280;20454;48.100;11.776;2023-04-20T17:26:57;94848.13;;;8.89;100.00
34185;BME280;20454;48.100;11.776;2023-04-20T17:29:23;94853.69;;;8.89;100.00
34185;BME280;20454;48.100;11.776;2023-04-20T17:31:49;94847.50;;;8.84;100.00
34185;BME280;20454;48.100;11.776;2023-04-20T17:34:14;94859.22;;;8.81;100.00
34185;BME280;20454;48.100;11.776;2023-04-20T17:36:40;94855.00;;;8.75;100.00
34185;BME280;20454;48.100;11.776;2023-04-20T17:39:06;94855.66;;;8.72;100.00
34185;BME280;20454;48.100;11.776;2023-04-20T17:41:32;94864.63;;;8.69;100.00
34185;BME280;20454;48.100;11.776;2023-04-20T17:44:00;94863.66;;;8.65;100.00
34185;BME280;20454;48.100;11.776;2023-04-20T17:46:25;94858.25;;;8.60;100.00
34185;BME280;20454;48.100;11.776;2023-04-20T17:48:51;94858.59;;;8.58;100.00
34185;BME280;20454;48.100;11.776;2023-04-20T17:51:17;94854.19;;;8.57;100.00
34185;BME280;20454;48.100;11.776;2023-04-20T17:53:42;94870.66;;;8.54;100.00
34185;BME280;20454;48.100;11.776;2023-04-20T17:56:08;94869.00;;;8.53;100.00
34185;BME280;20454;48.100;11.776;2023-04-20T17:58:35;94864.44;;;8.48;100.00
34185;BME280;20454;48.100;11.776;2023-04-20T18:01:00;94860.72;;;8.44;100.00
34185;BME280;20454;48.100;11.776;2023-04-20T18:03:26;94871.44;;;8.46;100.00
34185;BME280;20454;48.100;11.776;2023-04-20T18:05:52;94885.47;;;8.41;100.00